Time;durP1;ratioP1;P1;durP2;ratioP2;P2;SDS_P1;SDS_P2;PMS_P1;PMS_P2;Temp;Humidity;BMP_temperature;BMP_pressure;BME280_temperature;BME280_humidity;BME280_pressure;Samples;Min_cycle;Max_cycle;Signal;HPM_P1;HPM_P2
2022/06/05 00:02:11;;;;;;;7.27;6.47;;;20.40;99.90;;;;;;4990389;28;20443;-76
2022/06/05 00:04:55;;;;;;;8.00;6.60;;;20.30;99.90;;;;;;4989642;28;20463;-75
2022/06/05 00:07:28;;;;;;;7.37;6.30;;;20.40;99.90;;;;;;4990107;28;20464;-76
2022/06/05 00:10:08;;;;;;;6.03;5.53;;;20.30;99.90;;;;;;4990005;28;20416;-75
2022/06/05 00:12:50;;;;;;;6.30;5.80;;;20.30;99.90;;;;;;4989733;28;20546;-75
2022/06/05 00:15:16;;;;;;;8.43;6.67;;;20.30;99.90;;;;;;4989925;28;20420;-75
2022/06/05 00:17:42;;;;;;;7.13;6.17;;;20.20;99.90;;;;;;4989914;28;21159;-75
2022/06/05 00:20:08;;;;;;;7.07;6.37;;;20.20;99.90;;;;;;4989919;28;20184;-74
2022/06/05 00:22:34;;;;;;;7.23;6.50;;;20.10;99.90;;;;;;4989911;28;20209;-75
2022/06/05 00:25:00;;;;;;;9.03;6.50;;;20.10;99.90;;;;;;4990761;28;20439;-76
2022/06/05 00:27:38;;;;;;;7.63;6.70;;;20.10;99.90;;;;;;4991299;28;20240;-76
2022/06/05 00:30:23;;;;;;;8.83;6.23;;;20.10;99.90;;;;;;4990213;28;20189;-76
2022/06/05 00:33:01;;;;;;;8.20;7.50;;;20.00;99.90;;;;;;5004952;28;20957;-75
2022/06/05 00:35:32;;;;;;;9.03;7.87;;;20.00;99.90;;;;;;5004454;28;20431;-76
2022/06/05 00:38:23;;;;;;;8.90;7.30;;;20.00;99.90;;;;;;4988367;28;20925;-76
2022/06/05 00:41:04;;;;;;;7.87;7.10;;;20.00;99.90;;;;;;4988053;28;20930;-76
2022/06/05 00:43:30;;;;;;;8.30;7.40;;;20.00;99.90;;;;;;4989462;28;20416;-76
2022/06/05 00:45:57;;;;;;;8.20;7.20;;;20.00;99.90;;;;;;4988487;28;20928;-76
2022/06/05 00:48:23;;;;;;;8.13;7.07;;;20.00;99.90;;;;;;4988752;28;20247;-76
2022/06/05 00:50:49;;;;;;;8.83;8.03;;;20.10;99.90;;;;;;4991090;28;20424;-75
2022/06/05 00:53:15;;;;;;;7.90;7.20;;;20.00;99.90;;;;;;5008657;28;20445;-76
2022/06/05 00:55:48;;;;;;;7.80;6.37;;;20.10;99.90;;;;;;4994302;28;20438;-76
2022/06/05 00:58:15;;;;;;;7.30;6.63;;;20.10;99.90;;;;;;4999447;28;20414;-78
2022/06/05 01:00:44;;;;;;;8.53;7.43;;;20.00;99.90;;;;;;4999230;28;20428;-78
2022/06/05 01:03:11;;;;;;;7.13;6.30;;;20.00;99.90;;;;;;4998171;28;20444;-77
2022/06/05 01:05:38;;;;;;;7.83;6.73;;;20.00;99.90;;;;;;5000027;28;20889;-78
2022/06/05 01:08:05;;;;;;;6.57;5.97;;;19.90;99.90;;;;;;5012503;28;20507;-78
2022/06/05 01:10:54;;;;;;;8.40;7.63;;;19.80;99.90;;;;;;4997516;28;20428;-76
2022/06/05 01:13:43;;;;;;;8.67;7.50;;;19.90;99.90;;;;;;4993532;28;20929;-77
2022/06/05 01:16:11;;;;;;;7.87;7.17;;;20.00;99.90;;;;;;4992957;28;20433;-77
2022/06/05 01:18:37;;;;;;;9.30;7.53;;;20.00;99.90;;;;;;4993209;28;20427;-77
2022/06/05 01:21:08;;;;;;;12.93;7.73;;;20.00;99.90;;;;;;4993146;28;20420;-77
2022/06/05 01:23:58;;;;;;;14.57;7.90;;;19.90;99.90;;;;;;4991831;28;20551;-76
2022/06/05 01:26:33;;;;;;;9.30;8.27;;;20.00;99.90;;;;;;4992712;28;20543;-75
2022/06/05 01:29:17;;;;;;;9.93;8.93;;;19.90;99.90;;;;;;4992152;28;20450;-77
2022/06/05 01:32:02;;;;;;;7.77;7.17;;;19.80;99.90;;;;;;4991094;28;20445;-77
2022/06/05 01:34:45;;;;;;;9.63;8.73;;;19.80;99.90;;;;;;5007522;28;20984;-76
2022/06/05 01:37:18;;;;;;;7.53;6.87;;;19.80;99.90;;;;;;4992537;28;20532;-76
2022/06/05 01:40:33;;;;;;;9.27;7.70;;;19.70;99.90;;;;;;4992582;28;20420;-76
2022/06/05 01:43:04;;;;;;;7.97;7.17;;;19.80;99.90;;;;;;4979390;28;20465;-75
2022/06/05 01:45:44;;;;;;;7.97;7.20;;;19.80;99.90;;;;;;5009915;28;20440;-77
2022/06/05 01:48:18;;;;;;;15.70;7.87;;;19.90;99.90;;;;;;4992673;28;20508;-76
2022/06/05 01:50:51;;;;;;;8.23;7.43;;;20.00;99.90;;;;;;4993067;28;20412;-76
2022/06/05 01:53:24;;;;;;;7.30;6.60;;;19.90;99.90;;;;;;4991746;28;21263;-76
2022/06/05 01:55:54;;;;;;;7.43;6.30;;;20.00;99.90;;;;;;4991719;28;20424;-76
2022/06/05 01:58:25;;;;;;;9.20;7.23;;;20.00;99.90;;;;;;4991404;28;20437;-76
2022/06/05 02:00:54;;;;;;;7.37;6.77;;;19.90;99.90;;;;;;4991489;28;20440;-76
2022/06/05 02:03:31;;;;;;;8.40;6.83;;;19.80;99.90;;;;;;5007916;28;21007;-75
2022/06/05 02:06:03;;;;;;;11.30;7.90;;;19.80;99.90;;;;;;4991606;28;20983;-76
2022/06/05 02:08:35;;;;;;;8.83;7.93;;;19.80;99.90;;;;;;4992686;28;20469;-75
2022/06/05 02:11:23;;;;;;;7.60;6.63;;;19.80;99.90;;;;;;4991491;28;20428;-76
2022/06/05 02:13:51;;;;;;;7.33;6.73;;;19.80;99.90;;;;;;4991595;28;20445;-75
2022/06/05 02:16:20;;;;;;;10.43;7.53;;;19.80;99.90;;;;;;5007335;28;20431;-76
2022/06/05 02:18:46;;;;;;;6.87;6.27;;;19.80;99.90;;;;;;4991621;28;20425;-75
2022/06/05 02:21:12;;;;;;;8.27;7.17;;;19.80;99.90;;;;;;4991389;28;20481;-76
2022/06/05 02:23:40;;;;;;;8.70;7.20;;;19.80;99.90;;;;;;4991426;28;20189;-75
2022/06/05 02:26:07;;;;;;;8.70;7.90;;;19.80;99.90;;;;;;4991599;28;20771;-76
2022/06/05 02:28:34;;;;;;;9.17;7.20;;;19.60;99.90;;;;;;4992004;28;20427;-76
2022/06/05 02:31:00;;;;;;;11.03;7.90;;;19.50;99.90;;;;;;4992035;28;20421;-76
2022/06/05 02:34:05;;;;;;;11.53;8.67;;;19.40;99.90;;;;;;4993216;28;20436;-76
2022/06/05 02:36:41;;;;;;;11.43;8.93;;;19.30;99.90;;;;;;4970970;28;20429;-75
2022/06/05 02:39:38;;;;;;;14.03;8.33;;;19.10;99.90;;;;;;4991996;28;20427;-76
2022/06/05 02:42:22;;;;;;;9.50;8.57;;;19.00;99.90;;;;;;4963385;28;20455;-76
2022/06/05 02:44:49;;;;;;;9.67;8.50;;;19.00;99.90;;;;;;4990125;28;20529;-76
2022/06/05 02:47:14;;;;;;;10.87;9.37;;;19.00;99.90;;;;;;4991018;28;20471;-75
2022/06/05 02:49:49;;;;;;;11.73;8.67;;;18.90;99.90;;;;;;4990911;28;20421;-75
2022/06/05 02:52:15;;;;;;;8.50;7.70;;;18.90;99.90;;;;;;4989379;28;20216;-76
2022/06/05 02:55:09;;;;;;;9.63;8.60;;;18.80;99.90;;;;;;4991084;28;20765;-75
2022/06/05 02:57:36;;;;;;;13.87;8.60;;;18.90;99.90;;;;;;4989348;28;20429;-75
2022/06/05 03:00:06;;;;;;;9.40;8.50;;;18.80;99.90;;;;;;4989360;28;20988;-75
2022/06/05 03:05:16;;;;;;;11.33;9.27;;;18.70;99.90;;;;;;4990878;28;20618;-76
2022/06/05 03:07:42;;;;;;;11.93;7.63;;;18.70;99.90;;;;;;4989608;28;20524;-75
2022/06/05 03:10:08;;;;;;;12.30;9.23;;;18.60;99.90;;;;;;4989488;28;20431;-75
2022/06/05 03:12:34;;;;;;;11.80;8.50;;;18.70;99.90;;;;;;4989937;28;20889;-75
2022/06/05 03:15:01;;;;;;;8.57;7.77;;;18.70;99.90;;;;;;4990135;28;20539;-77
2022/06/05 03:17:29;;;;;;;10.17;9.10;;;18.70;99.90;;;;;;4990983;28;20551;-77
2022/06/05 03:19:55;;;;;;;15.90;9.10;;;18.70;99.90;;;;;;4989518;28;20463;-77
2022/06/05 03:22:22;;;;;;;12.20;9.07;;;18.60;99.90;;;;;;5006026;28;20841;-77
2022/06/05 03:24:47;;;;;;;10.13;9.07;;;18.60;99.90;;;;;;4991003;28;20723;-77
2022/06/05 03:27:13;;;;;;;9.77;8.77;;;18.60;99.90;;;;;;4989012;28;20805;-77
2022/06/05 03:29:39;;;;;;;12.80;9.00;;;18.60;99.90;;;;;;4990453;28;20188;-77
2022/06/05 03:32:05;;;;;;;10.37;9.37;;;18.50;99.90;;;;;;4990674;28;20244;-77
2022/06/05 03:34:30;;;;;;;11.03;9.33;;;18.50;99.90;;;;;;4991074;28;20517;-77
2022/06/05 03:36:56;;;;;;;12.90;8.57;;;18.50;99.90;;;;;;4991132;28;20432;-77
2022/06/05 03:39:21;;;;;;;12.47;9.93;;;18.50;99.90;;;;;;4991535;28;20267;-77
2022/06/05 03:41:47;;;;;;;10.30;9.27;;;18.50;99.90;;;;;;4990045;28;20212;-77
2022/06/05 03:44:13;;;;;;;9.47;8.57;;;18.40;99.90;;;;;;4989601;28;20197;-77
2022/06/05 03:46:40;;;;;;;10.77;9.20;;;18.40;99.90;;;;;;4988909;28;20300;-78
2022/06/05 03:49:10;;;;;;;11.10;9.37;;;18.40;99.90;;;;;;4992801;28;20796;-77
2022/06/05 03:51:37;;;;;;;10.17;9.07;;;18.40;99.90;;;;;;5008321;28;20443;-77
2022/06/05 03:54:02;;;;;;;11.47;7.80;;;18.40;99.90;;;;;;5006609;28;21031;-76
2022/06/05 03:56:29;;;;;;;7.70;7.00;;;18.50;99.90;;;;;;4988093;28;20435;-77
2022/06/05 03:58:56;;;;;;;9.27;8.27;;;18.40;99.90;;;;;;4989719;28;20181;-77
2022/06/05 04:01:24;;;;;;;8.10;7.40;;;18.50;99.90;;;;;;4991323;28;20434;-80
2022/06/05 04:03:51;;;;;;;12.70;7.07;;;18.60;99.90;;;;;;5005491;28;20430;-78
2022/06/05 04:06:21;;;;;;;9.53;7.37;;;18.60;99.90;;;;;;4988727;28;20433;-77
2022/06/05 04:08:47;;;;;;;7.43;6.80;;;18.70;99.90;;;;;;5004898;28;20436;-75
2022/06/05 04:11:16;;;;;;;9.80;6.73;;;18.80;99.90;;;;;;4989549;28;20932;-75
2022/06/05 04:13:42;;;;;;;9.90;8.10;;;18.80;99.90;;;;;;4989668;28;20460;-75
2022/06/05 04:16:20;;;;;;;8.20;7.40;;;19.00;99.90;;;;;;4989861;28;20918;-75
2022/06/05 04:18:47;;;;;;;8.70;7.90;;;18.80;99.90;;;;;;5004758;28;20214;-76
2022/06/05 04:21:16;;;;;;;8.93;8.03;;;18.70;99.90;;;;;;4989403;28;20529;-76
2022/06/05 04:23:42;;;;;;;8.70;7.70;;;18.70;99.90;;;;;;5004512;28;20433;-76
2022/06/05 04:26:09;;;;;;;10.73;9.63;;;18.60;99.90;;;;;;4988152;28;20491;-76
2022/06/05 04:28:36;;;;;;;11.90;10.60;;;18.60;99.90;;;;;;4989279;28;20247;-75
2022/06/05 04:31:03;;;;;;;11.23;10.07;;;18.60;99.90;;;;;;4988797;28;20474;-74
2022/06/05 04:33:31;;;;;;;12.97;11.00;;;18.50;99.90;;;;;;4989717;28;20421;-75
2022/06/05 04:35:57;;;;;;;13.23;10.97;;;18.40;99.90;;;;;;4989628;28;20424;-76
2022/06/05 04:38:23;;;;;;;14.80;10.67;;;18.40;99.90;;;;;;4988502;28;20428;-75
2022/06/05 04:40:49;;;;;;;13.37;10.00;;;18.40;99.90;;;;;;4988747;28;20828;-75
2022/06/05 04:43:14;;;;;;;12.27;11.03;;;18.40;99.90;;;;;;4990704;28;20260;-74
2022/06/05 04:45:42;;;;;;;12.17;9.60;;;18.40;99.90;;;;;;4992664;28;20180;-76
2022/06/05 04:48:10;;;;;;;14.33;11.60;;;18.20;99.90;;;;;;4989827;28;20225;-77
2022/06/05 04:50:36;;;;;;;14.53;10.30;;;18.30;99.90;;;;;;4973466;28;20425;-74
2022/06/05 04:53:02;;;;;;;13.70;10.83;;;18.30;99.90;;;;;;4990427;28;20451;-73
2022/06/05 04:55:27;;;;;;;13.00;10.83;;;18.40;99.90;;;;;;4990397;28;20418;-74
2022/06/05 04:57:53;;;;;;;11.73;10.33;;;18.30;99.90;;;;;;4990582;28;20195;-74
2022/06/05 05:00:19;;;;;;;11.67;10.67;;;18.30;99.90;;;;;;4989698;28;20182;-74
2022/06/05 05:02:44;;;;;;;12.50;9.83;;;18.30;99.90;;;;;;4990251;28;20265;-74
2022/06/05 05:05:10;;;;;;;12.30;11.20;;;18.30;99.90;;;;;;4989387;28;20433;-75
2022/06/05 05:07:36;;;;;;;12.90;10.90;;;18.30;99.90;;;;;;4988931;28;20220;-74
2022/06/05 05:10:02;;;;;;;12.73;11.40;;;18.30;99.90;;;;;;4989453;28;20193;-77
2022/06/05 05:12:27;;;;;;;14.90;10.83;;;18.30;99.90;;;;;;4989378;28;20416;-76
2022/06/05 05:14:53;;;;;;;11.90;10.80;;;18.30;99.90;;;;;;4989444;28;20452;-76
2022/06/05 05:17:19;;;;;;;12.23;11.13;;;18.30;99.90;;;;;;4990540;28;20264;-77
2022/06/05 05:19:45;;;;;;;12.33;10.27;;;18.30;99.90;;;;;;4972868;28;20523;-78
2022/06/05 05:22:10;;;;;;;14.90;10.70;;;18.20;99.90;;;;;;4972619;28;20207;-77
2022/06/05 05:24:36;;;;;;;13.13;10.83;;;18.20;99.90;;;;;;4988353;28;20273;-76
2022/06/05 05:27:02;;;;;;;11.73;10.63;;;18.10;99.90;;;;;;4988413;28;20316;-76
2022/06/05 05:29:27;;;;;;;12.87;11.20;;;18.20;99.90;;;;;;4988222;28;20205;-75
2022/06/05 05:31:53;;;;;;;14.70;9.80;;;18.10;99.90;;;;;;4989688;28;20444;-75
2022/06/05 05:34:19;;;;;;;11.90;10.67;;;18.10;99.90;;;;;;4988373;28;20179;-76
2022/06/05 05:36:44;;;;;;;10.93;9.90;;;18.20;99.90;;;;;;4971863;28;20188;-76
2022/06/05 05:42:06;;;;;;;24.53;12.00;;;18.10;99.90;;;;;;4989861;28;20233;-73
2022/06/05 05:44:47;;;;;;;17.17;11.53;;;17.90;99.90;;;;;;4992815;28;20456;-72
2022/06/05 05:47:30;;;;;;;21.00;10.33;;;17.50;99.90;;;;;;4992594;28;20499;-73
2022/06/05 05:50:02;;;;;;;47.10;14.23;;;17.40;99.90;;;;;;4991666;28;20412;-73
2022/06/05 05:52:29;;;;;;;23.47;10.17;;;17.20;99.90;;;;;;4992746;28;20433;-74
2022/06/05 05:54:55;;;;;;;4.13;3.23;;;17.20;99.90;;;;;;4992871;28;20422;-73
2022/06/05 05:57:21;;;;;;;6.33;4.27;;;17.20;99.90;;;;;;4992866;28;20428;-74
2022/06/05 05:59:47;;;;;;;5.27;3.90;;;17.20;99.90;;;;;;4992749;28;20441;-73
2022/06/05 06:02:18;;;;;;;3.87;3.53;;;17.10;99.90;;;;;;5007592;28;20972;-73
2022/06/05 06:04:45;;;;;;;16.50;4.30;;;17.10;99.90;;;;;;4976030;28;20455;-73
2022/06/05 06:07:11;;;;;;;23.83;6.30;;;17.10;99.90;;;;;;4991420;28;20992;-73
2022/06/05 06:09:37;;;;;;;12.80;5.93;;;17.10;99.90;;;;;;4992958;28;21305;-73
2022/06/05 06:12:03;;;;;;;6.63;3.97;;;17.20;99.90;;;;;;5007549;28;20458;-74
2022/06/05 06:14:29;;;;;;;3.30;3.10;;;17.10;99.90;;;;;;4992619;28;20817;-73
2022/06/05 06:16:54;;;;;;;2.80;2.60;;;17.10;99.90;;;;;;5007865;28;20482;-73
2022/06/05 06:19:23;;;;;;;3.17;1.70;;;17.10;99.90;;;;;;4992735;28;20192;-73
2022/06/05 06:21:48;;;;;;;4.20;1.70;;;17.10;99.90;;;;;;5008031;28;20669;-75
2022/06/05 06:24:14;;;;;;;3.50;1.60;;;17.10;99.90;;;;;;4991554;28;20432;-74
2022/06/05 06:26:41;;;;;;;2.23;1.50;;;17.10;99.90;;;;;;4992707;28;20209;-73
2022/06/05 06:29:07;;;;;;;2.50;2.00;;;17.20;99.90;;;;;;4993315;28;20185;-74
2022/06/05 06:31:35;;;;;;;2.40;2.00;;;17.10;99.90;;;;;;4993854;28;20827;-74
2022/06/05 06:34:01;;;;;;;2.50;2.30;;;17.10;99.90;;;;;;5008277;28;21001;-74
2022/06/05 06:36:28;;;;;;;8.60;2.30;;;17.10;99.90;;;;;;4993889;28;20412;-74
2022/06/05 06:38:54;;;;;;;3.40;2.53;;;17.10;99.90;;;;;;4993961;28;20420;-74
2022/06/05 06:41:20;;;;;;;7.67;2.67;;;17.00;99.90;;;;;;4994049;28;20439;-74
2022/06/05 06:43:47;;;;;;;7.10;2.47;;;17.10;99.90;;;;;;4995168;28;20420;-74
2022/06/05 06:46:15;;;;;;;3.33;2.50;;;17.10;99.90;;;;;;5009308;28;20502;-74
2022/06/05 06:48:41;;;;;;;10.20;2.20;;;17.10;99.90;;;;;;5009944;28;20479;-74
2022/06/05 06:51:11;;;;;;;2.07;1.87;;;17.10;99.90;;;;;;4996670;28;20796;-73
2022/06/05 06:53:38;;;;;;;3.70;1.80;;;17.10;99.90;;;;;;4994964;28;20262;-74
2022/06/05 06:56:32;;;;;;;6.63;2.40;;;17.00;99.90;;;;;;5004474;28;20433;-73
2022/06/05 06:58:59;;;;;;;7.40;2.40;;;17.00;99.90;;;;;;5013584;28;20442;-73
2022/06/05 07:01:25;;;;;;;4.00;2.20;;;17.10;99.90;;;;;;5031931;28;20447;-74
2022/06/05 07:03:50;;;;;;;9.37;2.00;;;17.10;99.90;;;;;;5015067;28;20459;-74
2022/06/05 07:06:17;;;;;;;3.97;1.30;;;17.00;99.90;;;;;;5002063;28;20196;-74
2022/06/05 07:08:44;;;;;;;5.70;1.20;;;17.00;99.90;;;;;;4994059;28;20199;-74
2022/06/05 07:11:12;;;;;;;5.90;1.47;;;17.00;99.90;;;;;;4989283;28;20428;-74
2022/06/05 07:13:39;;;;;;;3.60;1.37;;;17.00;99.90;;;;;;4990004;28;20482;-74
2022/06/05 07:16:07;;;;;;;3.93;1.30;;;17.00;99.90;;;;;;5004436;28;20975;-75
2022/06/05 07:18:33;;;;;;;2.70;0.90;;;17.00;99.90;;;;;;4988124;28;20450;-74
2022/06/05 07:21:10;;;;;;;4.30;1.83;;;17.00;99.90;;;;;;4989540;28;20541;-75
2022/06/05 07:23:37;;;;;;;2.40;0.70;;;17.10;99.90;;;;;;5004243;28;20456;-75
2022/06/05 07:26:03;;;;;;;3.00;0.87;;;17.20;99.90;;;;;;4989861;28;20528;-75
2022/06/05 07:28:29;;;;;;;1.90;1.00;;;17.30;99.90;;;;;;4988375;28;20474;-75
2022/06/05 07:30:54;;;;;;;4.13;1.10;;;17.30;99.90;;;;;;4988486;28;20790;-75
2022/06/05 07:33:20;;;;;;;2.60;1.40;;;17.30;99.90;;;;;;4988381;28;20555;-75
2022/06/05 07:35:46;;;;;;;3.93;1.67;;;17.30;99.90;;;;;;4988269;28;20192;-75
2022/06/05 07:38:12;;;;;;;4.03;1.57;;;17.30;99.90;;;;;;4989544;28;20677;-75
2022/06/05 07:40:42;;;;;;;2.07;0.97;;;17.30;99.90;;;;;;4989595;28;20267;-75
2022/06/05 07:43:10;;;;;;;6.83;1.30;;;17.40;99.90;;;;;;5004027;28;20456;-75
2022/06/05 07:45:37;;;;;;;25.40;1.67;;;17.40;99.90;;;;;;4988109;28;20431;-75
2022/06/05 07:48:04;;;;;;;1.73;1.17;;;17.40;99.90;;;;;;4987355;28;20477;-75
2022/06/05 07:50:30;;;;;;;3.50;1.50;;;17.50;99.90;;;;;;4987118;28;20431;-75
2022/06/05 07:55:40;;;;;;;2.13;1.40;;;17.60;99.90;;;;;;4987424;28;20511;-76
2022/06/05 07:58:06;;;;;;;4.43;1.10;;;17.80;99.90;;;;;;4988400;28;20519;-75
2022/06/05 08:00:31;;;;;;;4.23;1.43;;;17.80;99.90;;;;;;4988364;28;20569;-75
2022/06/05 08:02:57;;;;;;;3.43;1.73;;;17.90;99.90;;;;;;4988242;28;20215;-76
2022/06/05 08:05:23;;;;;;;1.70;1.17;;;18.00;99.90;;;;;;4987573;28;20200;-75
2022/06/05 08:07:48;;;;;;;6.00;1.63;;;18.00;99.90;;;;;;4988013;28;20791;-75
2022/06/05 08:10:14;;;;;;;4.13;1.40;;;18.00;99.90;;;;;;4986717;28;20188;-75
2022/06/05 08:12:40;;;;;;;2.50;1.70;;;17.90;99.90;;;;;;4987698;28;20215;-76
2022/06/05 08:15:09;;;;;;;6.63;1.63;;;17.90;99.90;;;;;;4986484;28;20188;-76
2022/06/05 08:17:36;;;;;;;12.23;1.57;;;18.00;99.90;;;;;;4987878;28;20206;-75
2022/06/05 08:20:03;;;;;;;3.47;1.60;;;18.30;99.90;;;;;;4986431;28;20972;-75
2022/06/05 08:22:29;;;;;;;2.03;1.57;;;18.50;99.90;;;;;;4987601;28;20458;-75
2022/06/05 08:24:55;;;;;;;6.20;1.40;;;18.60;99.90;;;;;;4987882;28;20433;-76
2022/06/05 08:27:24;;;;;;;5.03;1.63;;;18.80;99.90;;;;;;4987838;28;20227;-75
2022/06/05 08:29:56;;;;;;;2.83;1.13;;;19.00;99.90;;;;;;4987837;28;20431;-75
2022/06/05 08:32:24;;;;;;;2.70;1.23;;;19.20;99.90;;;;;;4987699;28;20444;-75
2022/06/05 08:34:49;;;;;;;2.70;1.20;;;19.50;99.90;;;;;;4987944;28;20449;-75
2022/06/05 08:43:13;;;;;;;1.67;0.97;;;19.60;99.90;;;;;;4987793;28;20902;-76
2022/06/05 08:45:57;;;;;;;1.87;1.10;;;19.50;99.90;;;;;;4977144;28;21116;-75
2022/06/05 08:48:39;;;;;;;1.90;1.10;;;20.00;99.90;;;;;;4986345;28;20471;-75
2022/06/05 08:51:53;;;;;;;4.50;0.90;;;20.00;99.90;;;;;;5002529;28;20458;-75
2022/06/05 08:54:35;;;;;;;2.00;1.00;;;20.20;99.90;;;;;;4995655;28;20429;-75
2022/06/05 08:57:08;;;;;;;7.43;1.53;;;20.20;99.90;;;;;;4986057;28;20481;-75
2022/06/05 08:59:49;;;;;;;1.77;1.10;;;20.10;99.90;;;;;;4986314;28;20431;-75
2022/06/05 09:02:33;;;;;;;4.00;1.33;;;20.00;99.90;;;;;;4987676;28;20474;-74
2022/06/05 09:05:12;;;;;;;7.70;1.23;;;20.30;99.90;;;;;;4987945;28;20429;-75
2022/06/05 09:07:43;;;;;;;1.70;1.43;;;20.60;99.90;;;;;;4987980;28;20468;-75
2022/06/05 09:10:19;;;;;;;1.90;0.93;;;20.90;99.90;;;;;;5003269;28;20503;-74
2022/06/05 09:12:54;;;;;;;1.73;1.20;;;21.10;99.90;;;;;;5002860;28;21038;-75
2022/06/05 09:15:31;;;;;;;3.57;1.20;;;21.40;99.90;;;;;;4988788;28;20420;-75
2022/06/05 09:18:00;;;;;;;7.50;1.77;;;21.30;99.90;;;;;;4992787;28;20442;-75
2022/06/05 09:20:40;;;;;;;1.00;0.70;;;21.50;99.90;;;;;;4990330;28;20435;-75
2022/06/05 09:23:16;;;;;;;4.17;1.30;;;21.60;99.90;;;;;;4992192;28;20437;-75
2022/06/05 09:25:50;;;;;;;5.07;1.73;;;21.60;99.90;;;;;;4991973;28;20431;-75
2022/06/05 09:28:44;;;;;;;2.03;1.53;;;21.50;99.90;;;;;;4990467;28;21379;-75
2022/06/05 09:31:44;;;;;;;4.90;1.33;;;21.50;99.90;;;;;;4990187;28;20539;-75
2022/06/05 09:34:26;;;;;;;5.63;1.50;;;21.50;99.90;;;;;;5006319;28;20431;-76
2022/06/05 09:37:15;;;;;;;3.37;1.77;;;21.30;99.90;;;;;;5006449;28;20862;-76
2022/06/05 09:39:50;;;;;;;2.00;1.83;;;21.30;99.90;;;;;;4989914;28;20455;-76
2022/06/05 09:42:36;;;;;;;4.73;1.90;;;21.30;99.90;;;;;;4989682;28;20444;-76
2022/06/05 09:45:19;;;;;;;5.90;1.80;;;21.30;99.90;;;;;;4989783;28;20432;-76
2022/06/05 09:47:53;;;;;;;5.77;2.17;;;21.20;99.90;;;;;;4991296;28;20468;-76
2022/06/05 09:50:25;;;;;;;4.43;2.40;;;21.10;99.90;;;;;;4991255;28;20419;-75
2022/06/05 09:52:51;;;;;;;5.53;2.50;;;21.10;99.90;;;;;;4991090;28;20448;-76
2022/06/05 09:55:26;;;;;;;4.20;2.20;;;21.00;99.90;;;;;;5005672;28;20460;-76
2022/06/05 09:58:25;;;;;;;4.70;2.10;;;21.00;99.90;;;;;;4990936;28;20913;-76
2022/06/05 10:01:00;;;;;;;4.40;2.40;;;21.00;99.90;;;;;;4991069;28;20419;-76
2022/06/05 10:03:36;;;;;;;3.47;1.83;;;21.00;99.90;;;;;;4989698;28;20444;-75
2022/06/05 10:06:18;;;;;;;2.73;2.13;;;20.90;99.90;;;;;;4991271;28;20423;-76
2022/06/05 10:08:50;;;;;;;6.20;2.03;;;20.80;99.90;;;;;;4996851;28;20652;-78
2022/06/05 10:11:51;;;;;;;3.90;2.07;;;20.80;99.90;;;;;;4997292;28;20443;-77
2022/06/05 10:14:35;;;;;;;9.20;2.20;;;20.70;99.90;;;;;;4992509;28;20459;-79
2022/06/05 10:17:22;;;;;;;4.13;2.60;;;20.60;99.90;;;;;;4991751;28;20439;-80
2022/06/05 10:20:06;;;;;;;4.70;2.73;;;20.60;99.90;;;;;;4999697;28;20424;-79
2022/06/05 10:22:42;;;;;;;7.87;2.53;;;20.60;99.90;;;;;;4995639;28;20551;-76
2022/06/05 10:25:34;;;;;;;5.07;2.27;;;20.50;99.90;;;;;;4990889;28;20420;-76
2022/06/05 10:28:13;;;;;;;5.20;2.57;;;20.50;99.90;;;;;;4988167;28;20469;-75
2022/06/05 10:30:52;;;;;;;3.13;2.80;;;20.30;99.90;;;;;;4990524;28;20438;-76
2022/06/05 10:33:38;;;;;;;6.90;2.73;;;20.10;99.90;;;;;;4990476;28;20437;-76
2022/06/05 10:36:51;;;;;;;4.40;2.73;;;20.00;99.90;;;;;;4990507;28;20427;-76
2022/06/05 10:39:41;;;;;;;6.77;2.60;;;20.10;99.90;;;;;;4988832;28;20524;-76
2022/06/05 10:42:23;;;;;;;4.30;3.00;;;20.00;99.90;;;;;;4990431;28;20475;-76
2022/06/05 10:45:28;;;;;;;2.63;2.47;;;19.90;99.90;;;;;;4990422;28;20946;-77
2022/06/05 10:47:56;;;;;;;4.60;2.77;;;19.80;99.90;;;;;;4967886;28;20486;-76
2022/06/05 10:50:25;;;;;;;5.30;3.60;;;19.80;99.90;;;;;;4989901;28;20424;-75
2022/06/05 10:53:28;;;;;;;18.07;3.17;;;19.80;99.90;;;;;;4989734;28;20444;-75
2022/06/05 10:56:03;;;;;;;3.30;2.80;;;19.70;99.90;;;;;;4988334;28;20489;-76
2022/06/05 10:58:28;;;;;;;8.47;3.77;;;19.60;99.90;;;;;;4990123;28;20471;-75
2022/06/05 11:01:20;;;;;;;5.90;3.67;;;19.50;99.90;;;;;;4989547;28;20429;-74
2022/06/05 11:04:15;;;;;;;4.33;3.93;;;19.30;99.90;;;;;;4985326;28;20193;-74
2022/06/05 11:07:18;;;;;;;4.67;3.20;;;19.20;99.90;;;;;;4978699;28;21001;-74
2022/06/05 11:09:49;;;;;;;6.20;3.43;;;19.00;99.90;;;;;;4970654;28;20431;-74
2022/06/05 11:15:12;;;;;;;5.47;3.20;;;18.80;99.90;;;;;;4989538;28;20426;-74
2022/06/05 11:18:14;;;;;;;4.27;2.50;;;18.80;99.90;;;;;;4989099;28;20909;-73
2022/06/05 11:20:42;;;;;;;7.50;2.27;;;18.60;99.90;;;;;;4989007;28;20418;-74
2022/06/05 11:23:20;;;;;;;8.90;2.37;;;18.50;99.90;;;;;;4988813;28;20429;-74
2022/06/05 11:26:21;;;;;;;4.20;2.73;;;18.40;99.90;;;;;;4989039;28;21077;-74
2022/06/05 11:28:54;;;;;;;4.50;2.70;;;18.40;99.90;;;;;;4988861;28;20536;-74
2022/06/05 11:31:32;;;;;;;5.47;3.07;;;18.30;99.90;;;;;;5003708;28;20450;-74
2022/06/05 11:34:39;;;;;;;4.90;2.97;;;18.30;99.90;;;;;;4989236;28;20485;-74
2022/06/05 11:37:49;;;;;;;7.07;3.60;;;18.40;99.90;;;;;;4988274;28;20552;-74
2022/06/05 11:40:53;;;;;;;4.03;2.37;;;18.40;99.90;;;;;;4988691;28;20506;-74
2022/06/05 11:43:26;;;;;;;3.03;2.43;;;18.40;99.90;;;;;;4988303;28;20444;-74
2022/06/05 11:46:28;;;;;;;3.33;2.33;;;18.40;99.90;;;;;;5003042;28;20428;-74
2022/06/05 11:49:05;;;;;;;6.33;2.43;;;18.50;99.90;;;;;;4988388;28;20470;-74
2022/06/05 11:52:04;;;;;;;4.23;2.47;;;18.50;99.90;;;;;;4987018;28;20441;-74
2022/06/05 11:55:20;;;;;;;2.80;2.53;;;18.50;99.90;;;;;;4988312;28;20951;-74
2022/06/05 11:57:50;;;;;;;3.63;2.20;;;18.40;99.90;;;;;;4983516;28;20432;-74
2022/06/05 12:00:21;;;;;;;3.33;2.40;;;18.40;99.90;;;;;;4988572;28;20517;-74
2022/06/05 12:02:46;;;;;;;3.90;2.10;;;18.40;99.90;;;;;;4988753;28;20552;-74
2022/06/05 12:05:31;;;;;;;2.00;1.77;;;18.50;99.90;;;;;;4988419;28;21240;-74
2022/06/05 12:08:18;;;;;;;4.90;2.47;;;18.60;99.90;;;;;;4988287;28;20225;-74
2022/06/05 12:11:00;;;;;;;3.60;2.00;;;18.60;99.90;;;;;;4988129;28;20492;-74
2022/06/05 12:13:35;;;;;;;4.90;2.00;;;18.70;99.90;;;;;;5002884;28;20462;-74
2022/06/05 12:16:09;;;;;;;5.60;1.73;;;18.70;99.90;;;;;;4988380;28;20781;-74
2022/06/05 12:18:56;;;;;;;2.87;1.83;;;18.70;99.90;;;;;;4988633;28;20421;-74
2022/06/05 12:21:27;;;;;;;3.67;1.83;;;18.70;99.90;;;;;;4988539;28;20476;-74
2022/06/05 12:24:06;;;;;;;1.90;1.47;;;18.80;99.90;;;;;;4989018;28;20492;-74
2022/06/05 12:26:50;;;;;;;4.83;2.10;;;19.00;99.90;;;;;;4987249;28;20432;-74
2022/06/05 12:29:25;;;;;;;4.07;2.30;;;19.20;99.90;;;;;;4986977;28;20435;-74
2022/06/05 12:32:06;;;;;;;5.00;1.97;;;19.20;99.90;;;;;;4986919;28;20534;-74
2022/06/05 12:35:18;;;;;;;3.43;2.17;;;19.20;99.90;;;;;;4987363;28;20433;-74
2022/06/05 12:37:55;;;;;;;2.77;1.80;;;19.20;99.90;;;;;;4928067;29;20427;-74
2022/06/05 12:40:29;;;;;;;4.50;1.90;;;19.20;99.90;;;;;;4928228;29;20432;-74
2022/06/05 12:43:11;;;;;;;2.53;2.00;;;19.30;99.90;;;;;;4967369;28;20502;-74
2022/06/05 12:45:41;;;;;;;5.90;1.80;;;19.60;99.90;;;;;;4988512;28;20425;-75
2022/06/05 12:48:19;;;;;;;3.50;1.63;;;20.10;99.90;;;;;;4988790;28;20474;-74
2022/06/05 12:51:12;;;;;;;5.00;1.80;;;20.30;99.90;;;;;;4989991;28;20895;-74
2022/06/05 12:54:00;;;;;;;4.17;1.50;;;20.40;99.90;;;;;;4992993;28;20447;-76
2022/06/05 12:56:50;;;;;;;3.87;1.77;;;20.50;99.90;;;;;;4992377;28;20514;-75
2022/06/05 12:59:21;;;;;;;4.13;1.80;;;20.60;99.90;;;;;;4992217;28;20419;-75
2022/06/05 13:01:58;;;;;;;3.00;1.90;;;20.60;99.90;;;;;;4991965;28;20443;-75
2022/06/05 13:04:44;;;;;;;10.23;1.43;;;20.50;99.90;;;;;;4992182;28;20502;-75
2022/06/05 13:07:17;;;;;;;5.97;1.70;;;20.40;99.90;;;;;;4992033;28;20459;-75
2022/06/05 13:10:14;;;;;;;6.83;1.87;;;20.10;99.90;;;;;;4990828;28;20517;-75
2022/06/05 13:12:49;;;;;;;3.60;1.43;;;19.90;99.90;;;;;;4990010;28;21001;-74
2022/06/05 13:15:24;;;;;;;5.33;2.33;;;19.70;99.90;;;;;;4991791;28;20525;-75
2022/06/05 13:18:03;;;;;;;5.63;1.50;;;19.80;99.90;;;;;;4991386;28;20426;-75
2022/06/05 13:20:44;;;;;;;3.80;1.50;;;19.80;99.90;;;;;;4989608;28;20523;-75
2022/06/05 13:23:23;;;;;;;4.87;1.77;;;19.80;99.90;;;;;;4991184;28;20446;-75
2022/06/05 13:26:16;;;;;;;6.77;1.60;;;19.80;99.90;;;;;;4991034;28;20452;-75
2022/06/05 13:29:19;;;;;;;4.43;1.90;;;19.70;99.90;;;;;;4991082;28;20476;-75
2022/06/05 13:31:57;;;;;;;6.70;1.60;;;19.80;99.90;;;;;;4991074;28;20436;-75
2022/06/05 13:34:22;;;;;;;6.23;2.03;;;19.70;99.90;;;;;;4991138;28;20477;-75
2022/06/05 13:36:58;;;;;;;6.07;1.60;;;19.70;99.90;;;;;;4989328;28;20433;-75